Time;durP1;ratioP1;P1;durP2;ratioP2;P2;SDS_P1;SDS_P2;PMS_P1;PMS_P2;Temp;Humidity;BMP_temperature;BMP_pressure;BME280_temperature;BME280_humidity;BME280_pressure;Samples;Min_cycle;Max_cycle;Signal;HPM_P1;HPM_P2
2022/03/10 00:02:07;;;;;;;41.05;18.67;;;;;;;;;;5006789;28;20025;-82
2022/03/10 00:04:37;;;;;;;35.33;15.82;;;;;;;;;;5003163;28;20037;-81
2022/03/10 00:07:03;;;;;;;32.10;14.93;;;;;;;;;;5009316;28;20030;-81
2022/03/10 00:09:35;;;;;;;33.88;15.40;;;;;;;;;;5001414;28;20022;-81
2022/03/10 00:12:02;;;;;;;30.15;14.20;;;;;;;;;;5009383;28;20022;-81
2022/03/10 00:14:27;;;;;;;32.97;15.05;;;;;;;;;;5007470;28;20044;-81
2022/03/10 00:16:53;;;;;;;28.90;13.68;;;;;;;;;;4987682;28;20034;-81
2022/03/10 00:19:19;;;;;;;27.30;13.35;;;;;;;;;;5007231;28;20029;-81
2022/03/10 00:21:46;;;;;;;28.02;13.10;;;;;;;;;;5025719;28;20049;-81
2022/03/10 00:24:12;;;;;;;31.00;14.32;;;;;;;;;;4994595;28;20188;-81
2022/03/10 00:26:37;;;;;;;28.10;14.07;;;;;;;;;;5008734;28;20084;-80
2022/03/10 00:29:06;;;;;;;26.15;11.93;;;;;;;;;;5006834;28;20045;-81
2022/03/10 00:31:32;;;;;;;29.77;13.15;;;;;;;;;;4993488;28;20040;-80
2022/03/10 00:33:58;;;;;;;21.75;11.02;;;;;;;;;;5023799;28;20143;-80
2022/03/10 00:36:24;;;;;;;28.85;13.35;;;;;;;;;;5028224;28;20036;-80
2022/03/10 00:38:50;;;;;;;30.23;13.25;;;;;;;;;;5025506;28;20053;-82
2022/03/10 00:41:15;;;;;;;28.40;13.50;;;;;;;;;;5009861;28;20041;-81
2022/03/10 00:43:41;;;;;;;26.40;12.80;;;;;;;;;;5004153;28;20040;-82
2022/03/10 00:46:07;;;;;;;27.80;13.05;;;;;;;;;;5005212;28;20121;-81
2022/03/10 00:48:32;;;;;;;26.38;12.55;;;;;;;;;;5008941;28;20490;-81
2022/03/10 00:50:58;;;;;;;26.10;13.55;;;;;;;;;;5006752;28;20129;-81
2022/03/10 00:53:24;;;;;;;25.25;12.25;;;;;;;;;;5019943;28;20040;-81
2022/03/10 00:55:49;;;;;;;24.58;11.15;;;;;;;;;;4995558;28;20393;-81
2022/03/10 00:58:15;;;;;;;27.52;12.52;;;;;;;;;;4993433;28;20129;-81
2022/03/10 01:00:41;;;;;;;24.13;11.07;;;;;;;;;;5003296;28;20605;-84
2022/03/10 01:03:06;;;;;;;23.58;11.07;;;;;;;;;;5021373;28;20055;-81
2022/03/10 01:05:32;;;;;;;23.30;11.27;;;;;;;;;;5005020;28;20029;-81
2022/03/10 01:07:59;;;;;;;22.30;10.85;;;;;;;;;;5003544;28;20036;-81
2022/03/10 01:10:24;;;;;;;21.75;10.32;;;;;;;;;;5014301;28;20497;-81
2022/03/10 01:12:50;;;;;;;19.67;9.35;;;;;;;;;;5011666;28;20044;-82
2022/03/10 01:15:19;;;;;;;21.38;10.18;;;;;;;;;;5003707;28;20497;-81
2022/03/10 01:17:44;;;;;;;22.33;10.15;;;;;;;;;;5004300;28;20120;-81
2022/03/10 01:20:11;;;;;;;23.55;10.50;;;;;;;;;;5003177;28;20153;-83
2022/03/10 01:22:37;;;;;;;26.75;11.40;;;;;;;;;;5002599;28;20196;-81
2022/03/10 01:25:07;;;;;;;24.42;11.60;;;;;;;;;;5005767;28;20474;-80
2022/03/10 01:27:33;;;;;;;20.95;8.98;;;;;;;;;;5006236;28;20026;-84
2022/03/10 01:29:59;;;;;;;22.98;10.70;;;;;;;;;;4991143;28;20108;-80
2022/03/10 01:32:25;;;;;;;21.13;10.02;;;;;;;;;;5008650;28;20026;-80
2022/03/10 01:34:51;;;;;;;21.88;9.75;;;;;;;;;;5004566;28;20058;-80
2022/03/10 01:37:17;;;;;;;20.55;9.43;;;;;;;;;;5016290;28;20092;-80
2022/03/10 01:39:42;;;;;;;19.88;9.43;;;;;;;;;;4990504;28;20034;-80
2022/03/10 01:42:08;;;;;;;20.48;9.07;;;;;;;;;;4973827;28;20641;-80
2022/03/10 01:44:34;;;;;;;20.48;9.77;;;;;;;;;;5001480;28;20033;-80
2022/03/10 01:47:01;;;;;;;21.15;9.18;;;;;;;;;;5005948;28;20029;-80
2022/03/10 01:49:27;;;;;;;19.65;9.80;;;;;;;;;;4994125;28;20048;-80
2022/03/10 01:51:53;;;;;;;20.95;10.05;;;;;;;;;;5006733;28;20025;-80
2022/03/10 01:54:20;;;;;;;22.48;9.88;;;;;;;;;;5003504;28;20036;-81
2022/03/10 01:56:47;;;;;;;24.70;9.65;;;;;;;;;;5001774;28;20034;-81
2022/03/10 01:59:13;;;;;;;18.35;9.48;;;;;;;;;;5004660;28;20029;-80
2022/03/10 02:01:39;;;;;;;18.73;8.80;;;;;;;;;;5018798;28;20124;-80
2022/03/10 02:04:04;;;;;;;24.42;9.80;;;;;;;;;;4972922;28;20124;-80
2022/03/10 02:06:31;;;;;;;18.02;8.88;;;;;;;;;;4988589;28;20954;-80
2022/03/10 02:11:41;;;;;;;23.85;9.65;;;;;;;;;;5000218;28;20458;-80
2022/03/10 02:19:35;;;;;;;21.77;10.00;;;;;;;;;;4998519;28;20044;-80
2022/03/10 02:22:07;;;;;;;19.33;8.32;;;;;;;;;;4998729;28;20029;-80
2022/03/10 02:24:35;;;;;;;19.17;8.63;;;;;;;;;;5000751;28;20059;-80
2022/03/10 02:27:16;;;;;;;21.08;9.25;;;;;;;;;;5004826;28;20033;-80
2022/03/10 02:29:43;;;;;;;23.27;9.17;;;;;;;;;;5021853;28;20025;-80
2022/03/10 02:32:13;;;;;;;22.00;9.27;;;;;;;;;;4990850;28;20406;-80
2022/03/10 02:34:39;;;;;;;17.63;9.15;;;;;;;;;;5010406;28;20490;-80
2022/03/10 02:37:06;;;;;;;20.73;9.00;;;;;;;;;;5005117;28;20214;-80
2022/03/10 02:39:32;;;;;;;19.30;9.00;;;;;;;;;;4989781;28;20036;-80
2022/03/10 02:41:57;;;;;;;17.88;7.95;;;;;;;;;;5004082;28;20509;-81
2022/03/10 02:44:24;;;;;;;18.63;8.15;;;;;;;;;;4972462;28;20041;-79
2022/03/10 02:46:50;;;;;;;19.98;7.88;;;;;;;;;;5006933;28;20502;-80
2022/03/10 02:49:15;;;;;;;21.13;8.63;;;;;;;;;;5006381;28;20083;-80
2022/03/10 02:51:41;;;;;;;18.95;8.93;;;;;;;;;;4982469;28;20028;-79
2022/03/10 02:54:06;;;;;;;20.02;8.32;;;;;;;;;;4990374;28;20413;-80
2022/03/10 02:56:32;;;;;;;19.45;8.60;;;;;;;;;;4988497;28;20430;-80
2022/03/10 02:58:59;;;;;;;14.27;7.03;;;;;;;;;;4986860;28;20107;-79
2022/03/10 03:01:25;;;;;;;19.77;8.52;;;;;;;;;;4987370;28;20057;-80
2022/03/10 03:03:50;;;;;;;21.83;8.30;;;;;;;;;;5002035;28;20506;-79
2022/03/10 03:06:15;;;;;;;20.88;8.80;;;;;;;;;;4982203;28;20038;-81
2022/03/10 03:08:41;;;;;;;24.35;9.02;;;;;;;;;;5006982;28;20072;-79
2022/03/10 03:11:06;;;;;;;17.77;7.85;;;;;;;;;;4977440;28;20095;-80
2022/03/10 03:13:32;;;;;;;16.67;7.43;;;;;;;;;;5005545;28;20108;-80
2022/03/10 03:15:58;;;;;;;22.77;9.02;;;;;;;;;;5011433;28;20037;-79
2022/03/10 03:18:24;;;;;;;17.98;7.72;;;;;;;;;;5025953;28;20410;-79
2022/03/10 03:20:50;;;;;;;19.15;8.98;;;;;;;;;;4998474;28;20041;-80
2022/03/10 03:23:16;;;;;;;19.33;8.40;;;;;;;;;;4990807;28;20627;-80
2022/03/10 03:25:42;;;;;;;9.38;4.22;;;;;;;;;;4992429;28;20051;-80
2022/03/10 03:28:07;;;;;;;18.20;8.52;;;;;;;;;;5022102;28;20446;-81
2022/03/10 03:30:32;;;;;;;13.27;6.15;;;;;;;;;;4987950;28;20033;-81
2022/03/10 03:32:58;;;;;;;17.77;7.25;;;;;;;;;;5004543;28;20375;-81
2022/03/10 03:35:25;;;;;;;18.48;8.23;;;;;;;;;;4988604;28;20049;-80
2022/03/10 03:37:50;;;;;;;20.52;8.75;;;;;;;;;;5018547;28;20032;-79
2022/03/10 03:40:16;;;;;;;19.60;7.35;;;;;;;;;;5003710;28;20037;-80
2022/03/10 03:42:41;;;;;;;19.00;7.43;;;;;;;;;;5003775;28;20048;-80
2022/03/10 03:45:07;;;;;;;16.25;7.07;;;;;;;;;;5006912;28;20040;-80
2022/03/10 03:47:33;;;;;;;19.42;7.03;;;;;;;;;;5008651;28;20037;-80
2022/03/10 03:49:58;;;;;;;15.60;7.03;;;;;;;;;;4990937;28;20029;-80
2022/03/10 03:52:24;;;;;;;16.25;7.22;;;;;;;;;;5002326;28;20716;-80
2022/03/10 03:54:49;;;;;;;17.17;7.13;;;;;;;;;;5021988;28;20130;-80
2022/03/10 03:57:15;;;;;;;19.08;7.80;;;;;;;;;;4971509;28;20049;-80
2022/03/10 03:59:40;;;;;;;15.82;7.00;;;;;;;;;;4990207;28;20044;-80
2022/03/10 04:02:06;;;;;;;19.17;7.15;;;;;;;;;;4986186;28;20056;-80
2022/03/10 04:04:31;;;;;;;15.88;7.22;;;;;;;;;;4999322;28;20060;-80
2022/03/10 04:06:57;;;;;;;19.70;7.82;;;;;;;;;;5003847;28;20100;-80
2022/03/10 04:09:22;;;;;;;15.32;6.65;;;;;;;;;;4991090;28;20033;-80
2022/03/10 04:11:49;;;;;;;10.57;5.15;;;;;;;;;;5005239;28;20037;-80
2022/03/10 04:14:14;;;;;;;11.65;5.05;;;;;;;;;;5008281;28;20121;-79
2022/03/10 04:16:40;;;;;;;8.23;4.10;;;;;;;;;;4977366;28;20121;-80
2022/03/10 04:19:05;;;;;;;12.45;5.53;;;;;;;;;;5010569;28;20042;-79
2022/03/10 04:21:32;;;;;;;7.70;3.60;;;;;;;;;;5027437;28;20098;-79
2022/03/10 04:23:57;;;;;;;6.50;3.10;;;;;;;;;;5003511;28;20717;-80
2022/03/10 04:26:23;;;;;;;7.57;3.70;;;;;;;;;;4993207;28;20125;-81
2022/03/10 04:28:49;;;;;;;8.90;3.83;;;;;;;;;;4979592;28;20037;-80
2022/03/10 04:31:14;;;;;;;9.20;4.70;;;;;;;;;;4990985;28;20040;-80
2022/03/10 04:33:40;;;;;;;7.93;4.30;;;;;;;;;;4993071;28;20032;-79
2022/03/10 04:36:05;;;;;;;11.70;4.75;;;;;;;;;;5007625;28;20041;-80
2022/03/10 04:38:31;;;;;;;8.75;4.53;;;;;;;;;;5003788;28;20085;-80
2022/03/10 04:40:56;;;;;;;7.95;4.28;;;;;;;;;;4989744;28;20060;-79
2022/03/10 04:43:21;;;;;;;11.02;4.72;;;;;;;;;;5009214;28;20160;-79
2022/03/10 04:45:47;;;;;;;7.75;4.22;;;;;;;;;;5002486;28;20045;-79
2022/03/10 04:48:13;;;;;;;10.65;5.47;;;;;;;;;;5008913;28;20061;-80
2022/03/10 04:50:38;;;;;;;12.35;5.32;;;;;;;;;;5008409;28;20096;-80
2022/03/10 04:53:04;;;;;;;13.52;6.25;;;;;;;;;;4982267;28;20029;-79
2022/03/10 04:55:31;;;;;;;9.95;5.57;;;;;;;;;;5022849;28;20112;-80
2022/03/10 04:57:56;;;;;;;13.75;5.80;;;;;;;;;;5004960;28;20033;-80
2022/03/10 05:00:22;;;;;;;15.77;6.13;;;;;;;;;;4990170;28;20045;-80
2022/03/10 05:02:48;;;;;;;12.90;5.95;;;;;;;;;;5021656;28;20794;-79
2022/03/10 05:05:14;;;;;;;12.48;6.18;;;;;;;;;;5022761;28;20038;-80
2022/03/10 05:07:41;;;;;;;11.10;4.88;;;;;;;;;;5008745;28;20031;-80
2022/03/10 05:10:08;;;;;;;12.10;5.47;;;;;;;;;;5024192;28;20025;-79
2022/03/10 05:12:42;;;;;;;8.20;5.07;;;;;;;;;;5025397;28;20124;-79
2022/03/10 05:15:08;;;;;;;9.15;5.13;;;;;;;;;;5006078;28;20045;-80
2022/03/10 05:17:33;;;;;;;12.43;5.63;;;;;;;;;;4964381;28;20029;-80
2022/03/10 05:19:58;;;;;;;13.15;6.18;;;;;;;;;;4992680;28;20056;-80
2022/03/10 05:22:24;;;;;;;14.23;6.93;;;;;;;;;;4993352;28;20091;-79
2022/03/10 05:24:49;;;;;;;16.25;7.55;;;;;;;;;;5008149;28;20679;-80
2022/03/10 05:27:15;;;;;;;14.18;7.18;;;;;;;;;;5010006;28;20466;-79
2022/03/10 05:29:40;;;;;;;12.80;7.32;;;;;;;;;;4974218;28;20037;-80
2022/03/10 05:32:16;;;;;;;17.15;8.40;;;;;;;;;;4985146;28;20450;-80
2022/03/10 05:34:42;;;;;;;16.58;8.05;;;;;;;;;;5008501;28;20045;-80
2022/03/10 05:37:07;;;;;;;16.17;7.75;;;;;;;;;;4994911;28;20030;-81
2022/03/10 05:39:33;;;;;;;15.32;7.47;;;;;;;;;;5020659;28;20037;-81
2022/03/10 05:41:59;;;;;;;13.15;6.00;;;;;;;;;;5005765;28;20033;-80
2022/03/10 05:44:24;;;;;;;12.65;6.45;;;;;;;;;;5001666;28;20120;-81
2022/03/10 05:46:50;;;;;;;11.15;5.60;;;;;;;;;;4977451;28;20490;-80
2022/03/10 05:49:15;;;;;;;9.85;5.80;;;;;;;;;;4972762;28;20036;-79
2022/03/10 05:51:41;;;;;;;12.32;6.63;;;;;;;;;;4995303;28;20029;-80
2022/03/10 05:54:06;;;;;;;9.63;5.30;;;;;;;;;;4983041;28;20052;-80
2022/03/10 05:56:32;;;;;;;10.77;5.63;;;;;;;;;;5009578;28;20041;-80
2022/03/10 05:58:57;;;;;;;9.55;4.55;;;;;;;;;;5022223;28;20026;-80
2022/03/10 06:01:23;;;;;;;9.35;5.15;;;;;;;;;;4990383;28;20036;-80
2022/03/10 06:03:48;;;;;;;9.73;4.95;;;;;;;;;;4970960;28;20037;-80
2022/03/10 06:06:14;;;;;;;7.20;3.47;;;;;;;;;;4991241;28;20037;-80
2022/03/10 06:08:39;;;;;;;6.95;3.55;;;;;;;;;;4988051;28;20103;-79
2022/03/10 06:11:07;;;;;;;8.48;3.90;;;;;;;;;;5006458;28;20032;-80
2022/03/10 06:13:33;;;;;;;8.05;4.20;;;;;;;;;;5032151;28;20549;-80
2022/03/10 06:16:00;;;;;;;4.20;2.00;;;;;;;;;;5006596;28;20029;-80
2022/03/10 06:18:25;;;;;;;11.90;3.50;;;;;;;;;;4985519;28;20028;-80
2022/03/10 06:20:50;;;;;;;94.68;7.85;;;;;;;;;;5002614;28;20046;-81
2022/03/10 06:23:16;;;;;;;29.27;4.30;;;;;;;;;;4986827;28;20038;-80
2022/03/10 06:25:41;;;;;;;14.90;4.18;;;;;;;;;;4988875;28;20026;-80
2022/03/10 06:28:08;;;;;;;11.38;3.22;;;;;;;;;;4989669;28;20037;-80
2022/03/10 06:30:34;;;;;;;10.00;3.55;;;;;;;;;;4998282;28;20113;-80
2022/03/10 06:32:59;;;;;;;6.28;3.35;;;;;;;;;;4977267;28;20025;-79
2022/03/10 06:35:25;;;;;;;4.22;1.55;;;;;;;;;;5008664;28;20045;-79
2022/03/10 06:37:50;;;;;;;5.75;2.92;;;;;;;;;;5011123;28;20033;-81
2022/03/10 06:40:16;;;;;;;13.70;2.33;;;;;;;;;;5005563;28;20092;-81
2022/03/10 06:42:42;;;;;;;2.85;1.70;;;;;;;;;;4997301;28;20524;-75
2022/03/10 06:45:07;;;;;;;4.03;2.22;;;;;;;;;;5006249;28;20136;-75
2022/03/10 06:47:33;;;;;;;4.13;1.80;;;;;;;;;;4997330;28;20971;-75
2022/03/10 06:49:58;;;;;;;3.65;1.95;;;;;;;;;;4999010;28;20541;-75
2022/03/10 06:52:24;;;;;;;5.18;1.75;;;;;;;;;;4986411;28;20085;-75
2022/03/10 06:54:49;;;;;;;4.18;1.98;;;;;;;;;;4967052;28;20030;-75
2022/03/10 06:57:15;;;;;;;3.78;2.20;;;;;;;;;;5002753;28;20045;-75
2022/03/10 06:59:41;;;;;;;5.47;2.50;;;;;;;;;;4985701;28;20030;-76
2022/03/10 07:02:07;;;;;;;8.10;1.45;;;;;;;;;;4969393;28;20142;-75
2022/03/10 07:04:33;;;;;;;2.13;1.20;;;;;;;;;;4986230;28;20037;-75
2022/03/10 07:06:59;;;;;;;4.72;1.85;;;;;;;;;;5004444;28;20026;-80
2022/03/10 07:09:24;;;;;;;4.22;1.90;;;;;;;;;;4986361;28;20492;-80
2022/03/10 07:11:50;;;;;;;5.63;2.28;;;;;;;;;;4994475;28;20018;-81
2022/03/10 07:14:15;;;;;;;3.60;1.67;;;;;;;;;;4969472;28;20121;-80
2022/03/10 07:16:42;;;;;;;3.30;1.70;;;;;;;;;;4998099;28;20161;-80
2022/03/10 07:19:09;;;;;;;4.35;1.75;;;;;;;;;;4990110;28;20037;-81
2022/03/10 07:21:37;;;;;;;2.72;1.27;;;;;;;;;;4983910;28;20117;-80
2022/03/10 07:24:04;;;;;;;3.40;1.60;;;;;;;;;;5001615;28;20040;-81
2022/03/10 07:26:29;;;;;;;5.75;1.73;;;;;;;;;;5017472;28;20030;-80
2022/03/10 07:28:59;;;;;;;5.10;1.77;;;;;;;;;;4988213;28;20026;-81
2022/03/10 07:31:28;;;;;;;5.80;1.80;;;;;;;;;;4971251;28;20501;-80
2022/03/10 07:33:54;;;;;;;4.35;1.83;;;;;;;;;;5021576;28;20422;-80
2022/03/10 07:36:20;;;;;;;7.00;1.63;;;;;;;;;;5009189;28;20037;-79
2022/03/10 07:38:45;;;;;;;2.45;1.27;;;;;;;;;;5008083;28;20025;-80
2022/03/10 07:41:11;;;;;;;7.70;1.10;;;;;;;;;;4988122;28;20125;-79
2022/03/10 07:43:37;;;;;;;5.97;0.80;;;;;;;;;;5013023;28;20506;-79
2022/03/10 07:46:05;;;;;;;2.33;1.23;;;;;;;;;;5001086;28;20092;-79
2022/03/10 07:48:31;;;;;;;8.43;1.40;;;;;;;;;;5012176;28;20026;-80
2022/03/10 07:50:56;;;;;;;3.75;1.42;;;;;;;;;;4995334;28;20441;-81
2022/03/10 07:53:22;;;;;;;9.50;0.90;;;;;;;;;;5009256;28;20033;-81
2022/03/10 07:55:48;;;;;;;3.60;1.20;;;;;;;;;;5008505;28;20037;-81
2022/03/10 07:58:13;;;;;;;7.82;1.80;;;;;;;;;;5010326;28;20088;-81
2022/03/10 08:00:41;;;;;;;6.80;1.98;;;;;;;;;;4971109;28;20038;-79
2022/03/10 08:03:07;;;;;;;2.75;1.08;;;;;;;;;;4983151;28;20042;-81
2022/03/10 08:05:34;;;;;;;5.82;1.50;;;;;;;;;;5004136;28;20040;-80
2022/03/10 08:08:01;;;;;;;5.95;1.40;;;;;;;;;;4997898;28;20030;-81
2022/03/10 08:10:27;;;;;;;5.35;2.08;;;;;;;;;;5011077;28;20606;-80
2022/03/10 08:12:52;;;;;;;4.50;1.67;;;;;;;;;;5007089;28;20033;-80
2022/03/10 08:15:20;;;;;;;4.35;1.38;;;;;;;;;;5008149;28;20120;-82
2022/03/10 08:17:46;;;;;;;2.83;1.25;;;;;;;;;;5009951;28;20014;-81
2022/03/10 08:20:12;;;;;;;4.82;1.58;;;;;;;;;;5003553;28;20119;-81
2022/03/10 08:22:37;;;;;;;2.15;1.10;;;;;;;;;;4990414;28;20130;-79
2022/03/10 08:25:03;;;;;;;4.95;1.58;;;;;;;;;;4983578;28;20450;-80
2022/03/10 08:27:29;;;;;;;2.05;1.10;;;;;;;;;;5005351;28;20034;-80
2022/03/10 08:29:54;;;;;;;1.40;0.60;;;;;;;;;;5004610;28;20075;-79
2022/03/10 08:32:21;;;;;;;1.73;1.10;;;;;;;;;;5005985;28;20034;-79
2022/03/10 08:34:46;;;;;;;8.63;1.50;;;;;;;;;;4979680;28;20133;-79
2022/03/10 08:37:12;;;;;;;3.35;1.10;;;;;;;;;;5006075;28;20124;-80
2022/03/10 08:39:37;;;;;;;2.30;1.10;;;;;;;;;;4983075;28;20105;-80
2022/03/10 08:42:03;;;;;;;14.07;1.55;;;;;;;;;;5004470;28;20041;-80
2022/03/10 08:44:29;;;;;;;7.35;1.20;;;;;;;;;;4983151;28;20037;-81
2022/03/10 08:46:54;;;;;;;3.08;1.10;;;;;;;;;;5008232;28;20570;-81
2022/03/10 08:49:20;;;;;;;3.20;1.10;;;;;;;;;;4990579;28;20034;-81
2022/03/10 08:51:48;;;;;;;4.50;0.90;;;;;;;;;;4975583;28;20030;-81
2022/03/10 08:54:14;;;;;;;5.60;1.10;;;;;;;;;;5008410;28;20056;-80
2022/03/10 08:56:39;;;;;;;1.98;1.05;;;;;;;;;;5010886;28;20030;-81
2022/03/10 08:59:05;;;;;;;3.22;1.25;;;;;;;;;;4980348;28;20094;-81
2022/03/10 09:01:31;;;;;;;2.03;0.80;;;;;;;;;;4995674;28;20071;-81
2022/03/10 09:03:56;;;;;;;3.05;0.75;;;;;;;;;;5005237;28;20087;-81
2022/03/10 09:06:22;;;;;;;2.45;0.68;;;;;;;;;;5008773;28;20088;-81
2022/03/10 09:08:48;;;;;;;4.78;0.88;;;;;;;;;;4994643;28;20509;-81
2022/03/10 09:11:14;;;;;;;5.45;1.10;;;;;;;;;;4993161;28;20037;-81
2022/03/10 09:13:43;;;;;;;6.50;0.88;;;;;;;;;;5006293;28;20029;-81
2022/03/10 09:16:09;;;;;;;2.42;0.50;;;;;;;;;;5008404;28;20061;-80
2022/03/10 09:18:34;;;;;;;3.08;1.05;;;;;;;;;;5014101;28;20061;-81
2022/03/10 09:21:01;;;;;;;1.27;0.63;;;;;;;;;;5009086;28;20050;-80
2022/03/10 09:23:27;;;;;;;3.65;0.50;;;;;;;;;;5005541;28;20033;-76
2022/03/10 09:25:52;;;;;;;2.40;0.52;;;;;;;;;;5008066;28;20868;-75
2022/03/10 09:28:18;;;;;;;1.58;0.52;;;;;;;;;;4991089;28;20935;-75
2022/03/10 09:30:44;;;;;;;1.38;0.38;;;;;;;;;;5006848;28;20030;-76
2022/03/10 09:33:10;;;;;;;1.85;0.40;;;;;;;;;;5000652;28;20558;-75
2022/03/10 09:35:36;;;;;;;2.28;0.60;;;;;;;;;;5007839;28;20030;-75
2022/03/10 09:38:01;;;;;;;1.13;0.30;;;;;;;;;;5002187;28;20026;-76
2022/03/10 09:40:27;;;;;;;5.88;0.40;;;;;;;;;;5006170;28;20026;-75
2022/03/10 09:42:52;;;;;;;4.47;0.50;;;;;;;;;;4989597;28;20038;-76
2022/03/10 09:45:18;;;;;;;2.28;0.43;;;;;;;;;;4979504;28;20053;-75
2022/03/10 09:47:45;;;;;;;1.77;0.43;;;;;;;;;;5003021;28;20092;-77
2022/03/10 09:50:14;;;;;;;0.45;0.20;;;;;;;;;;5004372;28;20045;-75
2022/03/10 09:52:42;;;;;;;6.82;0.50;;;;;;;;;;5013255;28;20037;-82
2022/03/10 09:55:08;;;;;;;2.95;0.32;;;;;;;;;;5012380;28;20076;-84
2022/03/10 09:57:43;;;;;;;2.33;0.28;;;;;;;;;;5022899;28;20446;-81
2022/03/10 10:00:11;;;;;;;1.55;0.43;;;;;;;;;;5010471;28;20045;-83
2022/03/10 10:02:37;;;;;;;9.60;0.73;;;;;;;;;;4999417;28;20025;-80
2022/03/10 10:07:40;;;;;;;6.20;0.60;;;;;;;;;;4747791;26;20050;-85
2022/03/10 10:10:10;;;;;;;7.55;0.50;;;;;;;;;;4996549;28;20280;-84
2022/03/10 10:12:35;;;;;;;6.63;0.70;;;;;;;;;;4982717;28;20033;-86
2022/03/10 10:15:09;;;;;;;8.65;0.70;;;;;;;;;;5005098;28;20100;-85
2022/03/10 10:17:35;;;;;;;5.95;0.32;;;;;;;;;;5003964;28;20038;-84
2022/03/10 10:20:04;;;;;;;4.88;0.80;;;;;;;;;;4987268;28;20112;-86
2022/03/10 10:22:30;;;;;;;6.18;0.57;;;;;;;;;;5021588;28;20060;-85
2022/03/10 10:25:07;;;;;;;2.90;0.90;;;;;;;;;;5005985;28;20025;-86
2022/03/10 10:27:34;;;;;;;5.85;0.35;;;;;;;;;;5006270;28;20041;-83
2022/03/10 10:30:08;;;;;;;7.40;0.75;;;;;;;;;;5025577;28;20025;-86
2022/03/10 10:32:45;;;;;;;8.82;0.73;;;;;;;;;;5004692;28;20030;-87
2022/03/10 10:35:14;;;;;;;6.93;0.70;;;;;;;;;;5002503;28;20057;-85
2022/03/10 10:37:48;;;;;;;7.22;0.52;;;;;;;;;;5003164;28;20024;-86
2022/03/10 10:40:19;;;;;;;1.33;0.20;;;;;;;;;;5002632;28;20033;-86
2022/03/10 10:42:45;;;;;;;4.93;0.30;;;;;;;;;;5009126;28;20036;-86
2022/03/10 10:45:39;;;;;;;10.13;0.77;;;;;;;;;;5003900;28;20408;-83
2022/03/10 10:48:12;;;;;;;13.10;1.05;;;;;;;;;;4999867;28;20096;-85
2022/03/10 10:50:45;;;;;;;6.07;0.50;;;;;;;;;;5024493;28;20117;-87
2022/03/10 10:53:30;;;;;;;4.50;0.75;;;;;;;;;;5008833;28;20033;-85
2022/03/10 10:56:04;;;;;;;9.00;0.90;;;;;;;;;;5026283;28;20116;-87
2022/03/10 10:58:30;;;;;;;5.05;0.32;;;;;;;;;;5008465;28;20029;-83
2022/03/10 11:00:57;;;;;;;3.13;0.20;;;;;;;;;;5030644;28;20104;-82
2022/03/10 11:03:25;;;;;;;16.10;0.93;;;;;;;;;;5021465;28;20038;-84
2022/03/10 11:05:52;;;;;;;6.45;0.45;;;;;;;;;;5019849;28;20090;-87
2022/03/10 11:08:20;;;;;;;6.22;0.45;;;;;;;;;;5002713;28;20041;-86
2022/03/10 11:10:46;;;;;;;4.18;0.80;;;;;;;;;;4993549;28;20029;-86
2022/03/10 11:13:12;;;;;;;5.68;0.30;;;;;;;;;;5005990;28;20080;-85
2022/03/10 11:15:45;;;;;;;5.85;0.40;;;;;;;;;;4999513;28;20021;-89
2022/03/10 11:18:14;;;;;;;4.95;0.55;;;;;;;;;;5009731;28;20040;-86
2022/03/10 11:20:50;;;;;;;4.25;0.22;;;;;;;;;;4986887;28;20032;-82
2022/03/10 11:23:36;;;;;;;2.28;0.25;;;;;;;;;;5001517;28;20518;-85
2022/03/10 11:26:02;;;;;;;7.30;0.60;;;;;;;;;;5003631;28;20021;-84
2022/03/10 11:28:33;;;;;;;9.15;0.32;;;;;;;;;;5000011;28;20029;-83
2022/03/10 11:31:09;;;;;;;2.55;0.32;;;;;;;;;;5020775;28;20065;-86
2022/03/10 11:33:38;;;;;;;3.25;0.20;;;;;;;;;;5012696;28;20156;-84
2022/03/10 11:36:25;;;;;;;4.90;0.45;;;;;;;;;;5001514;28;20535;-85
2022/03/10 11:39:10;;;;;;;3.17;0.30;;;;;;;;;;5005382;28;20032;-85
2022/03/10 11:41:48;;;;;;;2.83;0.65;;;;;;;;;;5009646;28;20101;-84
2022/03/10 12:01:17;;;;;;;3.17;0.30;;;;;;;;;;5021782;28;20041;-83
2022/03/10 12:03:49;;;;;;;2.30;0.20;;;;;;;;;;5007824;28;20055;-84
2022/03/10 12:06:17;;;;;;;2.17;0.15;;;;;;;;;;4980560;28;20064;-85
2022/03/10 12:09:06;;;;;;;3.72;0.30;;;;;;;;;;5001777;28;20213;-86
2022/03/10 12:11:48;;;;;;;4.72;0.63;;;;;;;;;;5007811;28;20064;-85
2022/03/10 12:14:36;;;;;;;2.90;0.55;;;;;;;;;;5015189;28;20044;-85
2022/03/10 12:17:02;;;;;;;3.50;0.28;;;;;;;;;;5023772;28;20083;-85
2022/03/10 12:26:49;;;;;;;5.57;0.28;;;;;;;;;;5029583;28;20157;-84
2022/03/10 12:29:21;;;;;;;3.50;0.45;;;;;;;;;;5009404;28;20083;-85
2022/03/10 12:32:07;;;;;;;3.92;0.60;;;;;;;;;;5001398;28;20063;-88
2022/03/10 12:34:37;;;;;;;1.63;0.35;;;;;;;;;;5000424;28;20041;-86
2022/03/10 12:37:14;;;;;;;3.25;0.30;;;;;;;;;;5017831;28;20052;-85
2022/03/10 12:39:48;;;;;;;6.03;0.55;;;;;;;;;;5002838;28;20104;-85
2022/03/10 12:42:33;;;;;;;5.95;0.63;;;;;;;;;;4992139;28;20030;-88
2022/03/10 12:45:04;;;;;;;2.78;0.30;;;;;;;;;;5018422;28;20121;-89
2022/03/10 12:47:45;;;;;;;6.57;0.38;;;;;;;;;;5020626;28;20086;-86
2022/03/10 12:51:11;;;;;;;9.45;0.50;;;;;;;;;;4993312;28;20276;-87
2022/03/10 12:53:46;;;;;;;3.38;0.35;;;;;;;;;;5008197;28;20029;-87
2022/03/10 12:56:14;;;;;;;5.57;0.40;;;;;;;;;;5021700;28;20147;-85
2022/03/10 12:58:40;;;;;;;3.83;0.65;;;;;;;;;;5002332;28;20033;-85
2022/03/10 13:03:47;;;;;;;4.18;0.68;;;;;;;;;;5101391;22;20935;-82
2022/03/10 13:06:13;;;;;;;2.75;0.70;;;;;;;;;;5028382;28;20150;-82
2022/03/10 13:08:43;;;;;;;4.50;0.80;;;;;;;;;;5026709;28;20504;-83
2022/03/10 13:11:11;;;;;;;3.10;0.60;;;;;;;;;;5046975;28;20021;-82
2022/03/10 13:13:40;;;;;;;6.75;0.50;;;;;;;;;;5026278;28;20036;-82
2022/03/10 13:16:06;;;;;;;5.70;0.47;;;;;;;;;;5017694;28;20068;-84
2022/03/10 13:18:44;;;;;;;4.70;0.32;;;;;;;;;;5024093;28;20035;-82
2022/03/10 13:21:10;;;;;;;3.00;0.43;;;;;;;;;;5015811;28;20029;-82
2022/03/10 13:23:36;;;;;;;10.00;0.85;;;;;;;;;;5007631;28;20036;-81
2022/03/10 13:26:03;;;;;;;4.50;0.50;;;;;;;;;;5040285;28;20098;-81
2022/03/10 13:28:30;;;;;;;4.13;0.55;;;;;;;;;;5027466;28;20024;-80
2022/03/10 13:30:56;;;;;;;2.72;0.85;;;;;;;;;;5047969;28;20036;-82
2022/03/10 13:33:25;;;;;;;6.72;0.47;;;;;;;;;;5021805;28;20045;-81
2022/03/10 13:35:57;;;;;;;2.38;0.30;;;;;;;;;;5032177;28;20032;-82
2022/03/10 13:38:25;;;;;;;3.72;0.30;;;;;;;;;;5043878;28;20057;-81
2022/03/10 13:41:04;;;;;;;8.38;1.40;;;;;;;;;;5036017;28;20033;-84
2022/03/10 13:43:36;;;;;;;5.10;0.40;;;;;;;;;;5026168;28;20835;-80
2022/03/10 13:46:13;;;;;;;2.58;0.40;;;;;;;;;;5022328;28;20096;-81
2022/03/10 13:48:45;;;;;;;7.95;0.73;;;;;;;;;;5034292;28;20029;-81
2022/03/10 13:51:12;;;;;;;3.55;0.28;;;;;;;;;;5029697;28;20040;-81
2022/03/10 13:53:37;;;;;;;9.75;0.40;;;;;;;;;;5026496;28;20036;-82
2022/03/10 13:56:03;;;;;;;7.60;0.60;;;;;;;;;;5010752;28;20040;-82
2022/03/10 13:58:28;;;;;;;6.47;1.00;;;;;;;;;;5022744;28;20029;-81
2022/03/10 14:01:04;;;;;;;7.20;0.50;;;;;;;;;;5044798;28;20452;-82
2022/03/10 14:03:30;;;;;;;4.90;0.50;;;;;;;;;;5009700;28;20137;-82
2022/03/10 14:06:03;;;;;;;7.22;0.32;;;;;;;;;;5008714;28;20077;-81
2022/03/10 14:08:30;;;;;;;13.55;0.50;;;;;;;;;;4994051;28;20038;-81
2022/03/10 14:10:59;;;;;;;4.63;0.57;;;;;;;;;;4991600;28;20103;-82
2022/03/10 14:13:29;;;;;;;4.80;0.50;;;;;;;;;;5012953;28;20029;-82
2022/03/10 14:16:20;;;;;;;9.15;0.40;;;;;;;;;;5018657;28;20036;-81
2022/03/10 14:18:50;;;;;;;5.55;0.40;;;;;;;;;;5002055;28;20121;-80
2022/03/10 14:21:17;;;;;;;2.72;0.38;;;;;;;;;;5016578;28;20044;-80
2022/03/10 14:23:53;;;;;;;3.65;0.30;;;;;;;;;;5014369;28;20462;-80
2022/03/10 14:26:20;;;;;;;5.28;0.60;;;;;;;;;;5022565;28;20370;-82
2022/03/10 14:28:50;;;;;;;4.63;0.30;;;;;;;;;;5008564;28;20040;-83
2022/03/10 14:31:24;;;;;;;7.00;0.75;;;;;;;;;;4993537;28;20033;-83
2022/03/10 14:33:51;;;;;;;9.68;1.15;;;;;;;;;;5026729;28;20594;-83
2022/03/10 14:36:19;;;;;;;5.72;0.50;;;;;;;;;;5024836;28;20038;-82
2022/03/10 14:38:45;;;;;;;10.90;1.10;;;;;;;;;;4970160;28;20053;-82
2022/03/10 14:41:19;;;;;;;5.70;0.82;;;;;;;;;;4989284;28;20033;-83
2022/03/10 14:43:44;;;;;;;4.40;1.10;;;;;;;;;;5025716;28;20045;-82
2022/03/10 14:46:10;;;;;;;9.73;0.80;;;;;;;;;;4994603;28;20041;-81
2022/03/10 14:48:35;;;;;;;8.00;0.70;;;;;;;;;;4978885;28;20136;-84
2022/03/10 14:51:01;;;;;;;7.15;0.47;;;;;;;;;;5011041;28;20064;-83
2022/03/10 14:53:27;;;;;;;8.02;0.47;;;;;;;;;;4989816;28;20595;-82
2022/03/10 14:55:52;;;;;;;7.80;0.88;;;;;;;;;;4995796;28;20045;-83
2022/03/10 14:58:18;;;;;;;3.92;0.60;;;;;;;;;;4993503;28;20044;-82
2022/03/10 15:00:44;;;;;;;4.75;0.55;;;;;;;;;;5009189;28;20022;-82
2022/03/10 15:03:09;;;;;;;9.02;0.82;;;;;;;;;;5027313;28;20054;-81
2022/03/10 15:05:37;;;;;;;6.57;0.40;;;;;;;;;;5012120;28;20046;-82
2022/03/10 15:10:37;;;;;;;2.15;0.50;;;;;;;;;;5160602;22;20124;-83
2022/03/10 15:13:03;;;;;;;6.45;0.68;;;;;;;;;;4956366;28;20104;-82
2022/03/10 15:15:32;;;;;;;3.33;0.30;;;;;;;;;;4960952;28;20133;-83
2022/03/10 15:18:07;;;;;;;5.97;0.70;;;;;;;;;;4966376;28;20036;-81
2022/03/10 15:20:33;;;;;;;9.75;0.45;;;;;;;;;;4965192;28;20030;-81